Time;durP1;ratioP1;P1;durP2;ratioP2;P2;SDS_P1;SDS_P2;PMS_P1;PMS_P2;Temp;Humidity;BMP_temperature;BMP_pressure;BME280_temperature;BME280_humidity;BME280_pressure;Samples;Min_cycle;Max_cycle;Signal;HPM_P1;HPM_P2
2022/10/28 00:00:30;;;;;;;2.33;2.22;;;;;;;;;;5072410;28;20489;-84
2022/10/28 00:02:59;;;;;;;1.92;1.83;;;;;;;;;;5075313;28;20052;-84
2022/10/28 00:05:26;;;;;;;2.05;1.95;;;;;;;;;;5074936;28;20052;-84
2022/10/28 00:07:52;;;;;;;1.95;1.58;;;;;;;;;;5075120;28;20063;-84
2022/10/28 00:10:19;;;;;;;2.78;2.10;;;;;;;;;;5074941;28;20052;-84
2022/10/28 00:12:45;;;;;;;1.42;1.35;;;;;;;;;;5074057;28;20053;-84
2022/10/28 00:15:13;;;;;;;1.92;1.83;;;;;;;;;;5074637;28;20451;-84
2022/10/28 00:17:39;;;;;;;2.70;2.55;;;;;;;;;;5074715;28;20071;-84
2022/10/28 00:20:07;;;;;;;1.77;1.67;;;;;;;;;;5074634;28;20048;-84
2022/10/28 00:22:33;;;;;;;2.63;2.42;;;;;;;;;;5074953;28;20106;-84
2022/10/28 00:24:59;;;;;;;2.50;2.30;;;;;;;;;;5062028;28;20489;-84
2022/10/28 00:27:26;;;;;;;1.35;1.33;;;;;;;;;;5054800;28;20045;-84
2022/10/28 00:29:52;;;;;;;1.02;1.02;;;;;;;;;;5056622;28;20112;-84
2022/10/28 00:32:20;;;;;;;1.85;1.75;;;;;;;;;;5074875;28;20086;-84
2022/10/28 00:34:47;;;;;;;1.65;1.55;;;;;;;;;;5074503;28;20102;-84
2022/10/28 00:37:13;;;;;;;3.20;3.10;;;;;;;;;;5074715;28;20512;-84
2022/10/28 00:39:40;;;;;;;1.70;1.60;;;;;;;;;;5074126;28;20052;-84
2022/10/28 00:42:06;;;;;;;1.50;1.40;;;;;;;;;;5074415;28;20052;-84
2022/10/28 00:45:03;;;;;;;2.78;2.58;;;;;;;;;;5074431;28;20123;-84
2022/10/28 00:47:37;;;;;;;1.35;1.25;;;;;;;;;;5073618;28;20102;-84
2022/10/28 00:50:11;;;;;;;1.52;1.42;;;;;;;;;;5074018;28;20067;-84
2022/10/28 00:52:39;;;;;;;3.47;3.17;;;;;;;;;;5074801;28;20052;-84
2022/10/28 00:55:06;;;;;;;1.80;1.73;;;;;;;;;;5073954;28;20098;-84
2022/10/28 00:57:34;;;;;;;1.85;1.75;;;;;;;;;;5074241;28;20053;-84
2022/10/28 01:00:02;;;;;;;1.20;1.13;;;;;;;;;;5073564;28;20105;-84
2022/10/28 01:02:28;;;;;;;2.22;1.15;;;;;;;;;;5073304;28;20048;-83
2022/10/28 01:04:56;;;;;;;1.73;1.63;;;;;;;;;;5073572;28;20439;-83
2022/10/28 01:07:23;;;;;;;2.30;2.20;;;;;;;;;;5074297;28;20048;-83
2022/10/28 01:09:49;;;;;;;1.85;1.75;;;;;;;;;;5074014;28;20048;-83
2022/10/28 01:12:20;;;;;;;2.45;2.10;;;;;;;;;;5073103;28;20048;-83
2022/10/28 01:14:55;;;;;;;5.40;1.85;;;;;;;;;;5073624;28;20048;-82
2022/10/28 01:17:30;;;;;;;1.88;1.60;;;;;;;;;;5073785;28;20114;-82
2022/10/28 01:20:17;;;;;;;1.52;1.40;;;;;;;;;;5072681;28;20052;-82
2022/10/28 01:22:47;;;;;;;3.22;2.50;;;;;;;;;;5073907;28;20109;-82
2022/10/28 01:25:24;;;;;;;1.77;1.67;;;;;;;;;;5073698;28;20056;-82
2022/10/28 01:28:10;;;;;;;1.55;1.45;;;;;;;;;;5073774;28;20048;-82
2022/10/28 01:30:42;;;;;;;2.20;1.98;;;;;;;;;;5072735;28;20048;-83
2022/10/28 01:33:14;;;;;;;1.52;1.42;;;;;;;;;;5073547;28;20466;-83
2022/10/28 01:35:44;;;;;;;1.67;1.58;;;;;;;;;;5073405;28;20048;-84
2022/10/28 01:38:19;;;;;;;2.65;2.42;;;;;;;;;;5072542;28;20052;-84
2022/10/28 01:40:48;;;;;;;1.83;1.73;;;;;;;;;;5073163;28;20446;-85
2022/10/28 01:43:21;;;;;;;2.03;1.92;;;;;;;;;;5073316;28;20492;-85
2022/10/28 01:45:51;;;;;;;2.17;2.08;;;;;;;;;;5073074;28;20530;-85
2022/10/28 01:48:21;;;;;;;0.93;0.93;;;;;;;;;;5073499;28;20048;-84
2022/10/28 01:50:51;;;;;;;1.35;1.33;;;;;;;;;;5072993;28;20563;-84
2022/10/28 01:53:19;;;;;;;2.17;1.98;;;;;;;;;;5072053;28;20052;-84
2022/10/28 01:55:47;;;;;;;2.17;1.98;;;;;;;;;;5073061;28;20105;-84
2022/10/28 01:58:17;;;;;;;2.30;2.10;;;;;;;;;;5073155;28;20577;-84
2022/10/28 02:00:44;;;;;;;1.90;1.80;;;;;;;;;;5072490;28;20110;-84
2022/10/28 02:03:11;;;;;;;2.78;2.67;;;;;;;;;;5073041;28;20048;-83
2022/10/28 02:05:40;;;;;;;2.13;2.03;;;;;;;;;;5072694;28;20052;-83
2022/10/28 02:08:15;;;;;;;2.92;2.72;;;;;;;;;;5059129;28;20107;-83
2022/10/28 02:10:46;;;;;;;1.45;1.42;;;;;;;;;;5053014;28;20049;-83
2022/10/28 02:13:14;;;;;;;4.13;1.27;;;;;;;;;;5052843;28;20099;-83
2022/10/28 02:15:43;;;;;;;2.20;2.10;;;;;;;;;;5052669;28;20040;-83
2022/10/28 02:18:16;;;;;;;4.10;2.65;;;;;;;;;;5052514;28;20045;-84
2022/10/28 02:20:47;;;;;;;2.28;2.08;;;;;;;;;;5052729;28;20558;-84
2022/10/28 02:23:17;;;;;;;3.40;3.20;;;;;;;;;;5051800;28;20114;-84
2022/10/28 02:25:46;;;;;;;1.33;1.30;;;;;;;;;;5064580;28;20569;-83
2022/10/28 02:28:16;;;;;;;2.33;1.17;;;;;;;;;;5072478;28;20040;-84
2022/10/28 02:30:45;;;;;;;1.25;1.15;;;;;;;;;;5071501;28;20477;-84
2022/10/28 02:33:13;;;;;;;2.10;2.00;;;;;;;;;;5072396;28;20048;-84
2022/10/28 02:35:43;;;;;;;2.38;0.70;;;;;;;;;;5071966;28;20044;-84
2022/10/28 02:38:14;;;;;;;1.55;1.23;;;;;;;;;;5072273;28;20106;-83
2022/10/28 02:40:42;;;;;;;0.70;0.70;;;;;;;;;;5071925;28;20497;-83
2022/10/28 02:43:10;;;;;;;2.70;2.50;;;;;;;;;;5072139;28;20109;-83
2022/10/28 02:45:39;;;;;;;1.08;1.00;;;;;;;;;;5072028;28;20102;-83
2022/10/28 02:48:07;;;;;;;1.63;1.52;;;;;;;;;;5071426;28;20044;-83
2022/10/28 02:50:35;;;;;;;1.45;1.35;;;;;;;;;;5071913;28;20419;-83
2022/10/28 02:53:02;;;;;;;1.00;1.00;;;;;;;;;;5072144;28;20056;-83
2022/10/28 02:55:34;;;;;;;1.63;1.52;;;;;;;;;;5071746;28;20048;-83
2022/10/28 02:58:00;;;;;;;1.10;1.00;;;;;;;;;;5072189;28;20052;-83
2022/10/28 03:00:27;;;;;;;1.23;1.08;;;;;;;;;;5072103;28;20045;-83
2022/10/28 03:02:53;;;;;;;2.17;2.08;;;;;;;;;;5070939;28;20125;-83
2022/10/28 03:05:20;;;;;;;0.82;0.82;;;;;;;;;;5071587;28;20729;-83
2022/10/28 03:07:46;;;;;;;2.05;1.95;;;;;;;;;;5072061;28;20052;-83
2022/10/28 03:10:13;;;;;;;1.05;0.95;;;;;;;;;;5071543;28;20060;-83
2022/10/28 03:12:41;;;;;;;0.70;0.70;;;;;;;;;;5071841;28;20101;-84
2022/10/28 03:15:08;;;;;;;1.40;1.30;;;;;;;;;;5071672;28;20098;-84
2022/10/28 03:17:34;;;;;;;2.85;0.95;;;;;;;;;;5071501;28;20052;-84
2022/10/28 03:20:01;;;;;;;1.02;1.00;;;;;;;;;;5070790;28;20056;-84
2022/10/28 03:22:27;;;;;;;2.05;1.92;;;;;;;;;;5071738;28;20074;-84
2022/10/28 03:24:54;;;;;;;0.85;0.70;;;;;;;;;;5071294;28;20500;-84
2022/10/28 03:27:20;;;;;;;2.03;1.92;;;;;;;;;;5072089;28;20121;-84
2022/10/28 03:29:48;;;;;;;1.63;1.55;;;;;;;;;;5071351;28;20049;-84
2022/10/28 03:32:14;;;;;;;0.73;0.60;;;;;;;;;;5071712;28;20052;-84
2022/10/28 03:34:41;;;;;;;0.80;0.80;;;;;;;;;;5072512;28;20625;-84
2022/10/28 03:37:08;;;;;;;1.48;1.38;;;;;;;;;;5074725;28;20041;-84
2022/10/28 03:39:34;;;;;;;2.17;1.77;;;;;;;;;;5055736;28;20061;-84
2022/10/28 03:42:00;;;;;;;1.02;0.93;;;;;;;;;;5055555;28;20098;-83
2022/10/28 03:44:27;;;;;;;2.47;2.28;;;;;;;;;;5055810;28;20170;-83
2022/10/28 03:46:55;;;;;;;0.98;0.95;;;;;;;;;;5055241;28;20052;-84
2022/10/28 03:49:21;;;;;;;2.30;0.93;;;;;;;;;;5055549;28;20551;-84
2022/10/28 03:51:48;;;;;;;1.95;1.63;;;;;;;;;;5055401;28;20053;-83
2022/10/28 03:54:14;;;;;;;2.08;1.75;;;;;;;;;;5055009;28;20443;-83
2022/10/28 03:56:41;;;;;;;1.92;1.80;;;;;;;;;;5055162;28;20060;-83
2022/10/28 03:59:08;;;;;;;2.88;1.67;;;;;;;;;;5055326;28;20381;-83
2022/10/28 04:01:35;;;;;;;1.67;1.25;;;;;;;;;;5055041;28;20057;-83
2022/10/28 04:04:03;;;;;;;0.50;0.50;;;;;;;;;;5055261;28;20044;-83
2022/10/28 04:06:29;;;;;;;1.92;1.83;;;;;;;;;;5056760;28;20483;-83
2022/10/28 04:08:56;;;;;;;10.88;0.90;;;;;;;;;;5061593;28;20049;-83
2022/10/28 04:11:22;;;;;;;1.67;1.05;;;;;;;;;;5075038;28;20052;-83
2022/10/28 04:13:49;;;;;;;1.13;1.00;;;;;;;;;;5074992;28;20048;-83
2022/10/28 04:16:15;;;;;;;0.57;0.57;;;;;;;;;;5074672;28;20114;-83
2022/10/28 04:18:42;;;;;;;2.10;1.40;;;;;;;;;;5075109;28;20109;-83
2022/10/28 04:21:09;;;;;;;2.47;1.75;;;;;;;;;;5074742;28;20137;-84
2022/10/28 04:23:36;;;;;;;1.67;1.58;;;;;;;;;;5074798;28;20067;-84
2022/10/28 04:26:02;;;;;;;2.20;2.03;;;;;;;;;;5073630;28;20049;-84
2022/10/28 04:28:29;;;;;;;1.13;1.02;;;;;;;;;;5074995;28;20052;-83
2022/10/28 04:30:55;;;;;;;1.35;1.25;;;;;;;;;;5074306;28;20053;-83
2022/10/28 04:33:22;;;;;;;1.08;1.05;;;;;;;;;;5074652;28;20048;-83
2022/10/28 04:35:48;;;;;;;0.60;0.60;;;;;;;;;;5074238;28;20052;-84
2022/10/28 04:38:16;;;;;;;1.73;1.63;;;;;;;;;;5074645;28;20558;-84
2022/10/28 04:40:43;;;;;;;0.90;0.80;;;;;;;;;;5074179;28;20530;-85
2022/10/28 04:43:10;;;;;;;2.67;1.67;;;;;;;;;;5073748;28;20052;-84
2022/10/28 04:45:37;;;;;;;1.17;1.10;;;;;;;;;;5073982;28;20040;-85
2022/10/28 04:48:04;;;;;;;0.77;0.77;;;;;;;;;;5073657;28;20110;-84
2022/10/28 04:50:30;;;;;;;0.80;0.80;;;;;;;;;;5074265;28;20466;-84
2022/10/28 04:52:57;;;;;;;0.63;0.63;;;;;;;;;;5074526;28;20056;-84
2022/10/28 04:55:25;;;;;;;1.60;1.50;;;;;;;;;;5074002;28;20048;-84
2022/10/28 04:57:55;;;;;;;1.17;0.50;;;;;;;;;;5074252;28;20451;-84
2022/10/28 05:00:21;;;;;;;1.83;1.73;;;;;;;;;;5073205;28;20087;-84
2022/10/28 05:02:48;;;;;;;1.55;1.45;;;;;;;;;;5074182;28;20049;-84
2022/10/28 05:05:15;;;;;;;1.35;1.23;;;;;;;;;;5074426;28;20040;-84
2022/10/28 05:07:41;;;;;;;2.05;1.95;;;;;;;;;;5073767;28;20404;-85
2022/10/28 05:10:08;;;;;;;8.00;1.10;;;;;;;;;;5073798;28;20055;-84
2022/10/28 05:12:36;;;;;;;2.65;2.55;;;;;;;;;;5073885;28;20122;-84
2022/10/28 05:15:02;;;;;;;1.85;1.75;;;;;;;;;;5073452;28;20048;-84
2022/10/28 05:17:29;;;;;;;1.20;1.10;;;;;;;;;;5073417;28;20065;-84
2022/10/28 05:19:55;;;;;;;0.82;0.65;;;;;;;;;;5073804;28;20504;-84
2022/10/28 05:22:22;;;;;;;2.15;1.95;;;;;;;;;;5073449;28;20053;-84
2022/10/28 05:24:48;;;;;;;0.98;0.93;;;;;;;;;;5073711;28;20053;-84
2022/10/28 05:27:15;;;;;;;1.02;0.93;;;;;;;;;;5073601;28;20102;-84
2022/10/28 05:29:43;;;;;;;2.75;1.58;;;;;;;;;;5073174;28;20048;-82
2022/10/28 05:32:10;;;;;;;2.20;1.42;;;;;;;;;;5058045;28;20048;-84
2022/10/28 05:34:36;;;;;;;0.95;0.95;;;;;;;;;;5053504;28;20053;-84
2022/10/28 05:37:03;;;;;;;2.28;2.08;;;;;;;;;;5053530;28;20049;-84
2022/10/28 05:39:29;;;;;;;2.42;2.08;;;;;;;;;;5053292;28;20568;-83
2022/10/28 05:41:56;;;;;;;2.35;1.30;;;;;;;;;;5057394;28;20052;-84
2022/10/28 05:44:22;;;;;;;8.57;2.17;;;;;;;;;;5052890;28;20565;-84
2022/10/28 05:46:50;;;;;;;2.13;2.03;;;;;;;;;;5062246;28;20109;-84
2022/10/28 05:49:19;;;;;;;1.58;1.08;;;;;;;;;;5061283;28;20048;-84
2022/10/28 05:51:45;;;;;;;1.85;1.05;;;;;;;;;;5055557;28;20117;-83
2022/10/28 05:54:12;;;;;;;1.95;1.75;;;;;;;;;;5072264;28;20053;-84
2022/10/28 05:56:38;;;;;;;2.00;1.88;;;;;;;;;;5064509;28;20056;-84
2022/10/28 05:59:05;;;;;;;1.00;1.00;;;;;;;;;;5051512;28;20162;-84
2022/10/28 06:01:31;;;;;;;2.08;1.92;;;;;;;;;;5052034;28;20440;-84
2022/10/28 06:03:59;;;;;;;2.30;2.17;;;;;;;;;;5063251;28;20052;-84
2022/10/28 06:06:27;;;;;;;2.75;2.63;;;;;;;;;;5066535;28;20053;-84
2022/10/28 06:08:54;;;;;;;1.05;0.98;;;;;;;;;;5051990;28;20106;-84
2022/10/28 06:11:20;;;;;;;1.75;1.65;;;;;;;;;;5051868;28;20382;-84
2022/10/28 06:13:47;;;;;;;1.73;1.55;;;;;;;;;;5062958;28;20052;-84
2022/10/28 06:16:13;;;;;;;1.73;1.63;;;;;;;;;;5055704;28;20098;-84
2022/10/28 06:18:40;;;;;;;2.78;2.58;;;;;;;;;;5059639;28;20052;-84
2022/10/28 06:21:08;;;;;;;2.60;2.40;;;;;;;;;;5072017;28;20106;-85
2022/10/28 06:23:34;;;;;;;2.78;2.35;;;;;;;;;;5060466;28;20107;-84
2022/10/28 06:26:01;;;;;;;3.60;1.45;;;;;;;;;;5060782;28;20041;-84
2022/10/28 06:28:28;;;;;;;3.35;3.05;;;;;;;;;;5051498;28;20056;-84
2022/10/28 06:30:55;;;;;;;1.98;1.88;;;;;;;;;;5061862;28;20114;-84
2022/10/28 06:33:21;;;;;;;3.65;3.13;;;;;;;;;;5051533;28;20099;-84
2022/10/28 06:35:48;;;;;;;5.13;2.47;;;;;;;;;;5065564;28;20048;-84
2022/10/28 06:38:16;;;;;;;3.55;3.35;;;;;;;;;;5076463;28;20049;-84
2022/10/28 06:40:42;;;;;;;4.13;3.83;;;;;;;;;;5071793;28;20053;-84
2022/10/28 06:43:11;;;;;;;0.77;0.68;;;;;;;;;;5071340;28;20114;-84
2022/10/28 06:45:37;;;;;;;6.88;2.38;;;;;;;;;;5068542;28;20068;-84
2022/10/28 06:48:05;;;;;;;3.03;2.60;;;;;;;;;;5062880;28;20052;-84
2022/10/28 06:50:32;;;;;;;13.30;5.03;;;;;;;;;;5067370;28;20452;-84
2022/10/28 06:52:59;;;;;;;7.00;2.92;;;;;;;;;;5066929;28;20569;-84
2022/10/28 06:55:27;;;;;;;5.93;3.63;;;;;;;;;;5071466;28;20113;-84
2022/10/28 06:57:54;;;;;;;7.30;3.78;;;;;;;;;;5070476;28;20129;-85
2022/10/28 07:00:21;;;;;;;5.53;5.13;;;;;;;;;;5065017;28;20052;-82
2022/10/28 07:02:50;;;;;;;6.68;4.22;;;;;;;;;;5059071;28;20052;-84
2022/10/28 07:05:16;;;;;;;5.05;4.57;;;;;;;;;;5059172;28;20106;-84
2022/10/28 07:07:43;;;;;;;3.15;2.95;;;;;;;;;;5063686;28;20056;-83
2022/10/28 07:10:10;;;;;;;6.03;5.60;;;;;;;;;;5067709;28;20040;-84
2022/10/28 07:12:37;;;;;;;2.55;2.35;;;;;;;;;;5062101;28;20057;-84
2022/10/28 07:15:04;;;;;;;5.13;4.30;;;;;;;;;;5050630;28;20049;-84
2022/10/28 07:17:31;;;;;;;4.72;4.28;;;;;;;;;;5058851;28;20059;-83
2022/10/28 07:19:57;;;;;;;3.80;3.38;;;;;;;;;;5064577;28;20102;-83
2022/10/28 07:22:24;;;;;;;2.40;2.28;;;;;;;;;;5061892;28;20098;-84
2022/10/28 07:24:50;;;;;;;4.72;4.32;;;;;;;;;;5051396;28;20045;-84
2022/10/28 07:27:17;;;;;;;3.20;1.90;;;;;;;;;;5050929;28;20041;-82
2022/10/28 07:29:45;;;;;;;1.80;1.70;;;;;;;;;;5052934;28;20056;-82
2022/10/28 07:32:11;;;;;;;9.15;4.82;;;;;;;;;;5063430;28;20113;-82
2022/10/28 07:34:38;;;;;;;3.90;3.53;;;;;;;;;;5071194;28;20488;-82
2022/10/28 07:37:04;;;;;;;2.97;2.67;;;;;;;;;;5063830;28;20040;-82
2022/10/28 07:39:31;;;;;;;2.83;2.63;;;;;;;;;;5067579;28;20053;-82
2022/10/28 07:41:59;;;;;;;2.08;1.95;;;;;;;;;;5065754;28;20484;-83
2022/10/28 07:44:26;;;;;;;3.78;3.42;;;;;;;;;;5070679;28;20060;-83
2022/10/28 07:46:54;;;;;;;3.28;2.90;;;;;;;;;;5070082;28;20048;-83
2022/10/28 07:49:20;;;;;;;2.33;2.20;;;;;;;;;;5070489;28;20052;-83
2022/10/28 07:51:49;;;;;;;2.38;2.22;;;;;;;;;;5070664;28;20095;-83
2022/10/28 07:54:15;;;;;;;3.10;2.92;;;;;;;;;;5070998;28;20056;-83
2022/10/28 07:56:42;;;;;;;3.88;3.28;;;;;;;;;;5069997;28;20658;-83
2022/10/28 07:59:08;;;;;;;2.08;1.98;;;;;;;;;;5069252;28;20056;-83
2022/10/28 08:01:35;;;;;;;2.03;1.92;;;;;;;;;;5056006;28;20099;-83
2022/10/28 08:04:03;;;;;;;3.50;3.20;;;;;;;;;;5070845;28;20045;-83
2022/10/28 08:06:29;;;;;;;4.32;4.05;;;;;;;;;;5070800;28;20098;-83
2022/10/28 08:08:56;;;;;;;3.85;3.60;;;;;;;;;;5070591;28;20514;-83
2022/10/28 08:11:23;;;;;;;3.08;2.50;;;;;;;;;;5070642;28;20045;-83
2022/10/28 08:13:50;;;;;;;2.97;2.78;;;;;;;;;;5070249;28;20048;-83
2022/10/28 08:16:17;;;;;;;2.83;2.67;;;;;;;;;;5070488;28;20102;-83
2022/10/28 08:18:44;;;;;;;4.10;3.88;;;;;;;;;;5070357;28;20064;-83
2022/10/28 08:21:13;;;;;;;4.60;3.40;;;;;;;;;;5070943;28;20050;-83
2022/10/28 08:23:40;;;;;;;3.28;3.08;;;;;;;;;;5074072;28;20052;-83
2022/10/28 08:26:07;;;;;;;5.25;4.85;;;;;;;;;;5074092;28;20080;-83
2022/10/28 08:28:33;;;;;;;2.53;2.33;;;;;;;;;;5073799;28;20553;-83
2022/10/28 08:31:01;;;;;;;3.53;2.45;;;;;;;;;;5074431;28;20048;-83
2022/10/28 08:33:27;;;;;;;4.55;4.22;;;;;;;;;;5073960;28;20138;-83
2022/10/28 08:35:54;;;;;;;3.55;3.30;;;;;;;;;;5074642;28;20056;-83
2022/10/28 08:38:22;;;;;;;3.47;3.20;;;;;;;;;;5072987;28;20040;-82
2022/10/28 08:40:54;;;;;;;4.18;3.97;;;;;;;;;;5074195;28;20052;-82
2022/10/28 08:43:25;;;;;;;2.10;2.00;;;;;;;;;;5073553;28;20052;-83
2022/10/28 08:45:53;;;;;;;3.70;3.50;;;;;;;;;;5074073;28;20105;-83
2022/10/28 08:48:22;;;;;;;5.35;3.22;;;;;;;;;;5073886;28;20568;-83
2022/10/28 08:50:50;;;;;;;3.83;3.58;;;;;;;;;;5074031;28;20053;-83
2022/10/28 08:53:18;;;;;;;4.82;4.53;;;;;;;;;;5074080;28;20048;-84
2022/10/28 08:55:48;;;;;;;7.63;3.33;;;;;;;;;;5073191;28;20115;-84
2022/10/28 08:58:17;;;;;;;3.60;3.40;;;;;;;;;;5073648;28;20094;-84
2022/10/28 09:00:45;;;;;;;3.83;3.63;;;;;;;;;;5073892;28;20549;-84
2022/10/28 09:03:16;;;;;;;3.88;3.75;;;;;;;;;;5059878;28;20052;-83
2022/10/28 09:05:44;;;;;;;5.75;5.45;;;;;;;;;;5053605;28;20052;-83
2022/10/28 09:08:14;;;;;;;4.18;3.28;;;;;;;;;;5053563;28;20045;-83
2022/10/28 09:10:55;;;;;;;4.65;4.25;;;;;;;;;;5053760;28;20495;-83
2022/10/28 09:13:26;;;;;;;4.47;4.18;;;;;;;;;;5053518;28;20451;-83
2022/10/28 09:15:58;;;;;;;5.00;4.70;;;;;;;;;;5053648;28;20098;-84
2022/10/28 09:18:30;;;;;;;9.70;5.03;;;;;;;;;;5053729;28;20091;-83
2022/10/28 09:20:59;;;;;;;3.35;3.15;;;;;;;;;;5066022;28;20099;-83
2022/10/28 09:23:28;;;;;;;6.78;6.43;;;;;;;;;;5053409;28;20056;-83
2022/10/28 09:26:02;;;;;;;5.45;5.05;;;;;;;;;;5053586;28;20378;-84
2022/10/28 09:28:36;;;;;;;4.57;4.18;;;;;;;;;;5053418;28;20053;-84
2022/10/28 09:31:08;;;;;;;4.65;4.35;;;;;;;;;;5053233;28;20056;-83
2022/10/28 09:33:39;;;;;;;4.72;4.38;;;;;;;;;;5052852;28;20056;-84
2022/10/28 09:36:10;;;;;;;3.67;3.47;;;;;;;;;;5053470;28;20048;-84
2022/10/28 09:38:36;;;;;;;;;;;;;;;;;;5053127;28;20459;-84
2022/10/28 09:41:05;;;;;;;5.75;5.43;;;;;;;;;;5070539;28;20416;-84
2022/10/28 09:43:34;;;;;;;4.53;4.22;;;;;;;;;;5059041;28;20098;-83
2022/10/28 09:46:01;;;;;;;4.57;4.25;;;;;;;;;;5053045;28;20060;-84
2022/10/28 09:48:29;;;;;;;4.72;4.43;;;;;;;;;;5053053;28;20481;-84
2022/10/28 09:50:56;;;;;;;4.20;2.92;;;;;;;;;;5052821;28;20095;-83
2022/10/28 09:53:29;;;;;;;6.03;5.53;;;;;;;;;;5052850;28;20104;-84
2022/10/28 09:55:56;;;;;;;5.65;5.28;;;;;;;;;;5053264;28;20126;-84
2022/10/28 09:58:24;;;;;;;3.90;2.97;;;;;;;;;;5056727;28;20084;-84
2022/10/28 10:00:51;;;;;;;4.03;3.83;;;;;;;;;;5073249;28;20048;-84
2022/10/28 10:03:17;;;;;;;6.30;5.90;;;;;;;;;;5072705;28;20574;-84
2022/10/28 10:05:46;;;;;;;4.70;4.40;;;;;;;;;;5072618;28;20496;-83
2022/10/28 10:08:15;;;;;;;6.03;5.70;;;;;;;;;;5061005;28;20049;-84
2022/10/28 10:10:45;;;;;;;6.63;6.22;;;;;;;;;;5052903;28;20439;-84
2022/10/28 10:13:12;;;;;;;5.07;4.78;;;;;;;;;;5052828;28;20052;-84
2022/10/28 10:15:43;;;;;;;6.15;5.75;;;;;;;;;;5062515;28;20052;-84
2022/10/28 10:18:13;;;;;;;3.72;3.45;;;;;;;;;;5066631;28;20049;-84
2022/10/28 10:20:47;;;;;;;5.07;4.38;;;;;;;;;;5053049;28;20053;-84
2022/10/28 10:23:22;;;;;;;5.65;5.03;;;;;;;;;;5055553;28;20070;-84
2022/10/28 10:25:53;;;;;;;5.80;5.32;;;;;;;;;;5072579;28;20056;-84
2022/10/28 10:28:21;;;;;;;5.07;4.20;;;;;;;;;;5072278;28;20534;-84
2022/10/28 10:30:50;;;;;;;5.15;3.25;;;;;;;;;;5069190;28;20113;-85
2022/10/28 10:33:18;;;;;;;6.03;5.00;;;;;;;;;;5071810;28;20052;-84
2022/10/28 10:35:52;;;;;;;5.30;3.97;;;;;;;;;;5072045;28;20468;-85
2022/10/28 10:38:19;;;;;;;5.78;3.75;;;;;;;;;;5071292;28;20090;-84
2022/10/28 10:40:48;;;;;;;4.82;4.55;;;;;;;;;;5071348;28;20052;-85
2022/10/28 10:43:20;;;;;;;6.95;4.78;;;;;;;;;;5060949;28;20102;-84
2022/10/28 10:45:51;;;;;;;3.50;3.28;;;;;;;;;;5050905;28;20055;-84
2022/10/28 10:48:18;;;;;;;4.63;4.28;;;;;;;;;;5052097;28;20459;-84
2022/10/28 10:50:46;;;;;;;9.15;5.30;;;;;;;;;;5052351;28;20051;-84
2022/10/28 10:53:20;;;;;;;4.43;4.03;;;;;;;;;;5051462;28;20049;-84
2022/10/28 10:55:50;;;;;;;5.20;4.70;;;;;;;;;;5063409;28;20044;-84
2022/10/28 10:58:18;;;;;;;6.82;6.15;;;;;;;;;;5064754;28;20083;-84
2022/10/28 11:00:47;;;;;;;6.05;5.65;;;;;;;;;;5051523;28;20110;-84
2022/10/28 11:03:28;;;;;;;6.47;5.57;;;;;;;;;;5053580;28;20048;-86
2022/10/28 11:05:57;;;;;;;5.70;5.03;;;;;;;;;;5049648;28;20056;-83
2022/10/28 11:08:39;;;;;;;5.65;5.25;;;;;;;;;;5056240;28;20488;-83
2022/10/28 11:11:07;;;;;;;6.57;6.18;;;;;;;;;;5071407;28;20369;-83
2022/10/28 11:13:34;;;;;;;4.97;4.50;;;;;;;;;;5056722;28;20052;-84
2022/10/28 11:16:01;;;;;;;8.52;8.02;;;;;;;;;;5051237;28;20059;-85
2022/10/28 11:18:30;;;;;;;8.27;6.72;;;;;;;;;;5051098;28;20065;-84
2022/10/28 11:21:02;;;;;;;6.22;5.82;;;;;;;;;;5051743;28;20049;-86
2022/10/28 11:23:37;;;;;;;6.35;5.80;;;;;;;;;;5060480;28;20052;-86
2022/10/28 11:26:04;;;;;;;5.50;5.15;;;;;;;;;;5071787;28;20060;-86
2022/10/28 11:28:52;;;;;;;6.40;5.95;;;;;;;;;;5065735;28;20091;-85
2022/10/28 11:31:35;;;;;;;7.53;7.10;;;;;;;;;;5045250;28;20057;-85
2022/10/28 11:34:10;;;;;;;6.78;6.30;;;;;;;;;;5052804;28;20439;-86
2022/10/28 11:36:42;;;;;;;4.72;4.50;;;;;;;;;;5050967;28;20095;-85
2022/10/28 11:39:17;;;;;;;4.55;4.25;;;;;;;;;;5050254;28;20103;-85
2022/10/28 11:41:49;;;;;;;5.88;5.57;;;;;;;;;;5062892;28;20049;-86
2022/10/28 11:44:23;;;;;;;7.55;6.97;;;;;;;;;;5050719;28;20497;-85
2022/10/28 11:46:54;;;;;;;6.07;5.57;;;;;;;;;;5057903;28;20057;-86
2022/10/28 11:49:35;;;;;;;4.35;4.15;;;;;;;;;;5053820;28;20049;-85
2022/10/28 11:52:11;;;;;;;6.65;6.15;;;;;;;;;;5049422;28;20485;-85
2022/10/28 11:54:45;;;;;;;5.80;5.30;;;;;;;;;;5053092;28;20049;-85
2022/10/28 11:57:14;;;;;;;8.63;6.78;;;;;;;;;;5054574;28;20053;-84
2022/10/28 12:00:02;;;;;;;5.07;4.70;;;;;;;;;;5054704;28;20550;-87
2022/10/28 12:02:38;;;;;;;5.45;5.15;;;;;;;;;;5055668;28;20091;-87
2022/10/28 12:05:11;;;;;;;6.80;6.25;;;;;;;;;;5058756;28;20129;-86
2022/10/28 12:07:48;;;;;;;5.85;5.55;;;;;;;;;;5061500;28;20099;-87
2022/10/28 12:10:19;;;;;;;7.07;6.68;;;;;;;;;;5071280;28;20056;-86
2022/10/28 12:12:48;;;;;;;8.68;8.07;;;;;;;;;;5069498;28;20049;-86
2022/10/28 12:15:21;;;;;;;6.38;5.95;;;;;;;;;;5065071;28;20091;-86
2022/10/28 12:17:52;;;;;;;6.70;6.40;;;;;;;;;;5071250;28;20084;-86
2022/10/28 12:20:22;;;;;;;5.85;5.55;;;;;;;;;;5062095;28;20102;-86
2022/10/28 12:22:51;;;;;;;5.65;5.22;;;;;;;;;;5073720;28;20055;-87
2022/10/28 12:25:19;;;;;;;6.68;6.38;;;;;;;;;;5074269;28;20098;-86
2022/10/28 12:27:47;;;;;;;6.57;6.18;;;;;;;;;;5066565;28;20049;-87
2022/10/28 12:30:19;;;;;;;6.13;5.72;;;;;;;;;;5069896;28;20080;-86
2022/10/28 12:32:46;;;;;;;5.22;4.85;;;;;;;;;;5073667;28;20048;-87
2022/10/28 12:35:16;;;;;;;5.85;5.55;;;;;;;;;;5073792;28;20448;-86
2022/10/28 12:37:45;;;;;;;8.07;7.50;;;;;;;;;;5072058;28;20439;-86
2022/10/28 12:40:16;;;;;;;7.72;6.03;;;;;;;;;;5056615;28;20045;-86
2022/10/28 12:42:43;;;;;;;5.38;4.75;;;;;;;;;;5055451;28;20053;-86
2022/10/28 12:45:12;;;;;;;7.53;7.03;;;;;;;;;;5059029;28;20107;-86
2022/10/28 12:47:42;;;;;;;6.65;6.25;;;;;;;;;;5054137;28;20402;-87
2022/10/28 12:50:13;;;;;;;7.30;6.85;;;;;;;;;;5057588;28;20499;-86
2022/10/28 12:52:41;;;;;;;8.25;7.72;;;;;;;;;;5073395;28;20439;-86
2022/10/28 12:55:15;;;;;;;5.53;5.22;;;;;;;;;;5059722;28;20049;-86
2022/10/28 12:57:43;;;;;;;8.73;8.13;;;;;;;;;;5058933;28;20044;-86
2022/10/28 13:00:15;;;;;;;7.07;6.68;;;;;;;;;;5060503;28;20102;-87
2022/10/28 13:02:46;;;;;;;4.65;4.25;;;;;;;;;;5055206;28;20057;-87
2022/10/28 13:05:18;;;;;;;10.18;9.45;;;;;;;;;;5057989;28;20506;-86
2022/10/28 13:07:52;;;;;;;4.72;4.43;;;;;;;;;;5052393;28;20045;-86
2022/10/28 13:10:26;;;;;;;6.35;6.05;;;;;;;;;;5053402;28;20130;-86
2022/10/28 13:13:20;;;;;;;6.65;6.25;;;;;;;;;;5052135;28;20562;-86
2022/10/28 13:15:55;;;;;;;7.63;5.93;;;;;;;;;;5026136;28;20560;-86
2022/10/28 13:18:38;;;;;;;5.10;4.80;;;;;;;;;;5031043;28;20131;-87
2022/10/28 13:21:10;;;;;;;7.03;6.63;;;;;;;;;;5010826;28;20103;-86
2022/10/28 13:23:40;;;;;;;4.97;4.68;;;;;;;;;;5010109;28;20053;-86
2022/10/28 13:26:15;;;;;;;83.38;39.28;;;;;;;;;;5011773;28;20141;-87
2022/10/28 13:28:44;;;;;;;11.25;10.35;;;;;;;;;;5027567;28;20050;-86
2022/10/28 13:31:11;;;;;;;7.07;6.47;;;;;;;;;;5010968;28;20111;-86
2022/10/28 13:33:38;;;;;;;6.72;6.22;;;;;;;;;;5019863;28;20192;-86
2022/10/28 13:36:10;;;;;;;7.05;6.70;;;;;;;;;;5016413;28;20703;-86
2022/10/28 13:38:37;;;;;;;6.47;6.07;;;;;;;;;;5027708;28;20555;-86
2022/10/28 13:41:25;;;;;;;5.03;4.72;;;;;;;;;;5012457;28;20049;-86
2022/10/28 13:44:21;;;;;;;5.00;4.80;;;;;;;;;;5010676;28;20049;-86
2022/10/28 13:47:18;;;;;;;6.47;6.07;;;;;;;;;;5031096;28;20504;-86
2022/10/28 13:49:59;;;;;;;5.45;5.15;;;;;;;;;;4964860;28;20134;-86
2022/10/28 13:52:27;;;;;;;5.63;5.32;;;;;;;;;;5013592;28;20054;-86
2022/10/28 13:54:54;;;;;;;4.90;4.50;;;;;;;;;;5023178;28;20108;-86
2022/10/28 13:57:25;;;;;;;6.82;6.40;;;;;;;;;;5010523;28;20608;-85
2022/10/28 13:59:53;;;;;;;4.85;4.63;;;;;;;;;;5010639;28;20078;-86
2022/10/28 14:02:24;;;;;;;4.60;4.30;;;;;;;;;;5010898;28;20054;-86
2022/10/28 14:04:54;;;;;;;7.38;6.97;;;;;;;;;;5010796;28;20482;-86
2022/10/28 14:07:22;;;;;;;3.67;3.47;;;;;;;;;;5010624;28;20108;-86
2022/10/28 14:09:54;;;;;;;4.85;4.55;;;;;;;;;;5012426;28;20057;-86
2022/10/28 14:12:28;;;;;;;3.17;2.97;;;;;;;;;;5030524;28;20059;-86
2022/10/28 14:14:58;;;;;;;4.20;4.00;;;;;;;;;;5029612;28;20057;-86
2022/10/28 14:17:26;;;;;;;5.47;5.07;;;;;;;;;;5029638;28;20615;-86
2022/10/28 14:19:53;;;;;;;5.90;5.57;;;;;;;;;;5029897;28;20046;-86
2022/10/28 14:22:30;;;;;;;11.98;10.13;;;;;;;;;;5030086;28;20440;-85
2022/10/28 14:24:58;;;;;;;5.93;5.38;;;;;;;;;;5051688;28;20056;-86
2022/10/28 14:27:39;;;;;;;6.40;5.97;;;;;;;;;;5072392;28;20086;-86
2022/10/28 14:30:14;;;;;;;6.13;5.63;;;;;;;;;;5071525;28;20048;-86
2022/10/28 14:32:44;;;;;;;4.15;3.95;;;;;;;;;;5072412;28;20574;-86
2022/10/28 14:35:29;;;;;;;5.47;5.18;;;;;;;;;;5072284;28;20057;-86
2022/10/28 14:38:10;;;;;;;5.68;5.38;;;;;;;;;;5072325;28;20577;-86
2022/10/28 14:40:44;;;;;;;5.10;4.82;;;;;;;;;;5069778;28;20098;-86
2022/10/28 14:43:15;;;;;;;6.18;5.88;;;;;;;;;;5071605;28;20562;-85
2022/10/28 14:45:48;;;;;;;4.70;4.38;;;;;;;;;;5071912;28;20052;-85
2022/10/28 14:48:33;;;;;;;5.78;5.43;;;;;;;;;;5072306;28;20055;-86
2022/10/28 14:51:01;;;;;;;4.38;4.07;;;;;;;;;;5071990;28;20122;-85
2022/10/28 14:53:30;;;;;;;6.75;6.40;;;;;;;;;;5072198;28;20044;-85
2022/10/28 14:56:00;;;;;;;7.15;6.68;;;;;;;;;;5071964;28;20121;-86